createdAt,value
2023-02-13T00:45:26.571Z,5.00
2023-02-13T00:47:55.275Z,5.00
2023-02-13T00:50:24.106Z,5.10
2023-02-13T00:52:52.623Z,5.20
2023-02-13T00:55:21.630Z,5.10
2023-02-13T00:57:50.158Z,5.10
2023-02-13T01:00:19.414Z,5.10
2023-02-13T01:02:49.376Z,5.10
2023-02-13T01:05:20.185Z,5.10
2023-02-13T01:07:48.800Z,5.10
2023-02-13T01:10:17.488Z,5.10
2023-02-13T01:12:46.035Z,5.10
2023-02-13T01:15:14.599Z,5.10
2023-02-13T01:17:43.155Z,5.10
2023-02-13T01:20:14.810Z,5.10
2023-02-13T01:22:44.557Z,5.10
2023-02-13T01:25:13.353Z,5.10
2023-02-13T01:27:41.973Z,5.10
2023-02-13T01:30:14.002Z,5.10
2023-02-13T01:32:43.817Z,5.10
2023-02-13T02:06:58.369Z,4.90
2023-02-13T02:09:35.287Z,4.80
2023-02-13T02:12:09.374Z,4.80
2023-02-13T02:14:41.933Z,4.80
2023-02-13T02:17:13.176Z,4.80
2023-02-13T02:20:05.246Z,4.80
2023-02-13T02:23:01.618Z,4.80
2023-02-13T02:25:58.669Z,4.80
2023-02-13T02:29:02.125Z,4.80
2023-02-13T02:32:00.068Z,4.80
2023-02-13T02:34:37.644Z,4.80
2023-02-13T02:37:20.149Z,4.80
2023-02-13T02:39:58.965Z,4.80
2023-02-13T02:42:34.674Z,4.80
2023-02-13T02:45:10.252Z,4.80
2023-02-13T02:48:07.308Z,4.80
2023-02-13T02:50:40.896Z,4.80
2023-02-13T02:53:32.961Z,4.80
2023-02-13T02:56:08.423Z,4.80
2023-02-13T02:58:59.835Z,4.80
2023-02-13T03:01:56.534Z,4.80
2023-02-13T03:04:45.958Z,4.80
2023-02-13T03:07:17.805Z,4.90
2023-02-13T03:10:10.450Z,4.80
2023-02-13T03:13:00.762Z,4.90
2023-02-13T03:15:30.268Z,4.90
2023-02-13T03:18:17.427Z,4.90
2023-02-13T03:21:12.200Z,4.90
2023-02-13T03:23:50.900Z,4.90
2023-02-13T03:26:50.474Z,4.90
2023-02-13T03:29:51.729Z,4.90
2023-02-13T03:32:30.297Z,4.90
2023-02-13T03:35:27.595Z,4.90
2023-02-13T03:38:05.589Z,5.00
2023-02-13T03:40:59.405Z,5.00
2023-02-13T03:43:31.160Z,5.00
2023-02-13T03:46:02.507Z,5.00
2023-02-13T03:48:51.882Z,4.90
2023-02-13T03:51:23.794Z,4.90
2023-02-13T03:53:56.904Z,4.90
2023-02-13T03:56:45.768Z,4.90
2023-02-13T03:59:21.784Z,4.90
2023-02-13T04:02:00.195Z,4.90
2023-02-13T04:04:36.811Z,4.90
2023-02-13T04:07:07.845Z,4.90
2023-02-13T04:09:41.171Z,4.90
2023-02-13T04:12:17.237Z,4.90
2023-02-13T04:14:51.652Z,4.90
2023-02-13T04:17:25.295Z,5.00
2023-02-13T04:19:54.684Z,5.00
2023-02-13T04:22:23.280Z,5.00
2023-02-13T04:24:53.244Z,5.00
2023-02-13T04:27:21.914Z,5.00
2023-02-13T04:29:50.457Z,5.00
2023-02-13T04:32:18.988Z,5.10
2023-02-13T04:34:47.520Z,5.10
2023-02-13T04:37:16.118Z,5.10
2023-02-13T04:39:44.633Z,5.20
2023-02-13T04:42:14.639Z,5.10
2023-02-13T04:44:43.264Z,5.10
2023-02-13T04:47:11.808Z,5.10
2023-02-13T04:49:40.340Z,5.10
2023-02-13T04:52:08.889Z,5.10
2023-02-13T04:54:37.449Z,5.10
2023-02-13T04:57:06.131Z,5.10
2023-02-13T04:59:36.147Z,5.10
2023-02-13T05:02:04.741Z,5.10
2023-02-13T05:04:33.387Z,5.10
2023-02-13T05:07:02.031Z,5.10
2023-02-13T05:09:30.603Z,5.10
2023-02-13T05:11:59.259Z,5.10
2023-02-13T05:14:28.569Z,5.10
2023-02-13T05:16:58.608Z,5.10
2023-02-13T05:19:27.294Z,5.10
2023-02-13T05:22:13.440Z,5.20
2023-02-13T05:24:42.041Z,5.10
2023-02-13T05:27:10.767Z,5.20
2023-02-13T05:29:38.388Z,5.20
2023-02-13T05:32:08.411Z,5.10
2023-02-13T05:34:37.124Z,5.10
2023-02-13T05:37:05.797Z,5.10
2023-02-13T05:39:34.524Z,5.20
2023-02-13T05:42:04.899Z,5.20
2023-02-13T05:44:33.806Z,5.10
2023-02-13T05:47:02.403Z,5.10
2023-02-13T05:49:32.398Z,5.10
2023-02-13T05:52:01.001Z,5.10
2023-02-13T05:54:29.601Z,5.10
2023-02-13T05:56:58.199Z,5.10
2023-02-13T05:59:26.837Z,5.10
2023-02-13T06:01:55.388Z,5.10
2023-02-13T06:04:24.077Z,5.10
2023-02-13T06:06:54.194Z,5.00
2023-02-13T06:09:23.034Z,5.00
2023-02-13T06:11:51.617Z,5.00
2023-02-13T06:14:20.252Z,5.00
2023-02-13T06:16:48.810Z,5.00
2023-02-13T06:19:17.332Z,5.00
2023-02-13T06:21:45.930Z,5.00
2023-02-13T06:24:16.184Z,5.00
2023-02-13T06:26:44.790Z,5.00
2023-02-13T06:29:13.407Z,5.00
2023-02-13T06:31:41.971Z,5.00
2023-02-13T06:34:10.804Z,5.00
2023-02-13T06:36:39.596Z,5.00
2023-02-13T06:39:08.122Z,5.00
2023-02-13T06:41:38.197Z,5.00
2023-02-13T06:44:07.905Z,5.00
2023-02-13T06:46:36.542Z,5.00
2023-02-13T06:49:05.118Z,5.00
2023-02-13T06:51:33.701Z,5.00
2023-02-13T06:54:02.745Z,5.00
2023-02-13T06:56:31.410Z,5.00
2023-02-13T06:59:01.379Z,5.00
2023-02-13T07:01:29.962Z,5.00
2023-02-13T07:03:58.601Z,5.10
2023-02-13T07:06:27.306Z,5.10
2023-02-13T07:08:56.360Z,5.10
2023-02-13T07:11:26.481Z,5.10
2023-02-13T07:13:55.070Z,5.10
2023-02-13T07:16:25.121Z,5.10
2023-02-13T07:18:53.743Z,5.20
2023-02-13T07:21:22.314Z,5.20
2023-02-13T07:23:50.886Z,5.30
2023-02-13T07:26:19.746Z,5.30
2023-02-13T07:28:49.107Z,5.30
2023-02-13T07:31:17.849Z,5.30
2023-02-13T07:33:50.433Z,5.30
2023-02-13T07:36:18.950Z,5.30
2023-02-13T07:38:47.483Z,5.40
2023-02-13T07:41:16.206Z,5.40
2023-02-13T07:43:44.996Z,5.40
2023-02-13T07:46:13.680Z,5.40
2023-02-13T07:48:42.320Z,5.40
2023-02-13T07:51:12.440Z,5.50
2023-02-13T07:53:41.012Z,5.40
2023-02-13T07:56:10.923Z,5.50
2023-02-13T07:58:41.142Z,5.50
2023-02-13T08:01:10.743Z,5.50
2023-02-13T08:04:06.967Z,5.50
2023-02-13T08:06:37.404Z,5.50
2023-02-13T08:09:23.201Z,5.60
2023-02-13T08:11:56.317Z,5.60
2023-02-13T08:14:26.090Z,5.70
2023-02-13T08:16:55.883Z,5.70
2023-02-13T08:19:24.446Z,5.70
2023-02-13T08:21:54.366Z,5.70
2023-02-13T08:24:23.012Z,5.70
2023-02-13T08:26:51.581Z,5.70
2023-02-13T08:29:20.117Z,5.80
2023-02-13T08:31:48.789Z,5.80
2023-02-13T08:34:17.445Z,5.80
2023-02-13T08:36:45.973Z,5.80
2023-02-13T08:39:15.907Z,5.90
2023-02-13T08:41:44.496Z,5.90
2023-02-13T08:44:13.167Z,5.90
2023-02-13T08:46:41.736Z,5.90
2023-02-13T08:49:10.385Z,6.00
2023-02-13T08:51:38.937Z,6.10
2023-02-13T08:54:07.559Z,6.00
2023-02-13T08:56:37.486Z,6.00
2023-02-13T08:59:06.036Z,6.10
2023-02-13T09:01:34.748Z,6.20
2023-02-13T09:04:03.375Z,6.20
2023-02-13T09:06:32.308Z,6.30
2023-02-13T09:09:01.005Z,6.30
2023-02-13T09:11:29.707Z,6.30
2023-02-13T09:13:59.755Z,6.30
2023-02-13T09:16:28.380Z,6.30
2023-02-13T09:18:56.994Z,6.40
2023-02-13T09:21:25.613Z,6.40
2023-02-13T09:23:55.405Z,6.40
2023-02-13T09:26:24.064Z,6.50
2023-02-13T09:28:53.857Z,6.50
2023-02-13T09:31:26.691Z,6.50
2023-02-13T09:33:56.446Z,6.60
2023-02-13T09:36:25.864Z,6.60
2023-02-13T09:38:56.421Z,6.70
2023-02-13T09:41:27.967Z,6.70
2023-02-13T09:44:00.360Z,6.70
2023-02-13T09:46:34.724Z,6.70
2023-02-13T09:49:07.189Z,6.70
2023-02-13T09:51:36.917Z,6.80
2023-02-13T09:54:08.658Z,6.70
2023-02-13T09:56:49.577Z,6.80
2023-02-13T09:59:33.673Z,6.80
2023-02-13T10:02:18.643Z,6.90
2023-02-13T10:04:53.811Z,7.00
2023-02-13T10:07:32.020Z,7.10
2023-02-13T10:10:09.588Z,7.20
2023-02-13T10:13:02.952Z,7.30
2023-02-13T10:15:41.538Z,7.30
2023-02-13T10:18:17.180Z,7.20
2023-02-13T10:20:50.704Z,7.10
2023-02-13T10:23:25.213Z,7.00
2023-02-13T10:25:59.011Z,6.90
2023-02-13T10:28:36.232Z,6.90
2023-02-13T10:31:08.516Z,6.80
2023-02-13T10:33:47.555Z,6.80
2023-02-13T10:36:21.274Z,6.70
2023-02-13T10:38:58.672Z,6.70
2023-02-13T10:41:38.862Z,6.60
2023-02-13T10:44:21.379Z,6.50
2023-02-13T10:47:00.377Z,6.50
2023-02-13T10:49:55.434Z,6.40
2023-02-13T10:52:35.863Z,6.40
2023-02-13T10:55:16.497Z,6.40
2023-02-13T10:58:09.336Z,6.40
2023-02-13T11:00:43.540Z,6.40
2023-02-13T11:03:22.083Z,6.40
2023-02-13T11:05:53.223Z,6.40
2023-02-13T11:08:24.458Z,6.50
2023-02-13T11:10:53.941Z,6.60
2023-02-13T11:13:24.450Z,6.60
2023-02-13T11:16:03.203Z,6.50
2023-02-13T11:18:35.038Z,6.50
2023-02-13T11:21:24.532Z,6.60
2023-02-13T11:23:56.420Z,6.50
2023-02-13T11:26:32.620Z,6.60
2023-02-13T11:29:03.314Z,6.70
2023-02-13T11:32:19.799Z,6.90
2023-02-13T11:34:50.730Z,6.90
2023-02-13T11:37:24.287Z,7.00
2023-02-13T11:39:55.437Z,7.10
2023-02-13T11:42:29.624Z,7.30
2023-02-13T11:45:02.200Z,7.30
2023-02-13T11:47:38.446Z,7.30
2023-02-13T11:50:21.430Z,7.40
2023-02-13T11:53:01.429Z,7.30
2023-02-13T11:55:33.257Z,7.20
2023-02-13T11:58:04.990Z,7.10
2023-02-13T12:00:40.126Z,7.00
2023-02-13T12:03:30.341Z,6.90
2023-02-13T12:06:05.210Z,6.80
2023-02-13T12:08:36.623Z,6.70
2023-02-13T12:11:15.822Z,6.80
2023-02-13T12:13:47.222Z,6.90
2023-02-13T12:16:26.459Z,7.00
2023-02-13T12:18:57.823Z,7.20
2023-02-13T12:21:42.150Z,7.10
2023-02-13T12:24:24.909Z,7.20
2023-02-13T12:26:59.164Z,7.20
2023-02-13T12:29:48.631Z,7.20
2023-02-13T12:32:20.709Z,7.20
2023-02-13T12:35:22.751Z,7.20
2023-02-13T12:38:01.155Z,7.20
2023-02-13T12:40:47.050Z,7.20
2023-02-13T12:43:31.270Z,7.10
2023-02-13T12:46:05.754Z,7.20
2023-02-13T12:48:41.517Z,7.10
2023-02-13T12:51:25.180Z,7.00
2023-02-13T12:54:16.608Z,6.90
2023-02-13T12:57:00.669Z,6.90
2023-02-13T12:59:41.576Z,6.80
2023-02-13T13:02:42.144Z,6.70
2023-02-13T13:05:30.097Z,6.60
2023-02-13T13:08:22.135Z,6.60
2023-02-13T13:11:01.731Z,6.60
2023-02-13T13:13:42.163Z,6.60
2023-02-13T13:16:21.041Z,6.50
2023-02-13T13:19:02.867Z,6.50
2023-02-13T13:21:46.786Z,6.40
2023-02-13T13:24:28.904Z,6.50
2023-02-13T13:26:58.925Z,6.40
2023-02-13T13:29:33.975Z,6.40
2023-02-13T13:32:07.108Z,6.40
2023-02-13T13:34:38.925Z,6.50
2023-02-13T13:37:14.058Z,6.50
2023-02-13T13:39:54.029Z,6.50
2023-02-13T13:42:32.556Z,6.50
2023-02-13T13:45:18.249Z,6.40
2023-02-13T13:48:07.300Z,6.30
2023-02-13T13:50:41.902Z,6.20
2023-02-13T13:53:14.468Z,6.20
2023-02-13T13:56:03.553Z,6.20
2023-02-13T13:58:39.019Z,6.20
2023-02-13T14:01:27.456Z,6.20
2023-02-13T14:03:57.371Z,6.20
2023-02-13T14:06:27.802Z,6.20
2023-02-13T14:09:06.254Z,6.20
2023-02-13T14:11:39.103Z,6.20
2023-02-13T14:14:53.727Z,6.20
2023-02-13T14:17:53.221Z,6.20
2023-02-13T14:20:37.165Z,6.20
2023-02-13T14:23:40.761Z,6.20
2023-02-13T14:26:36.298Z,6.20
2023-02-13T14:29:25.465Z,6.20
2023-02-13T14:32:21.259Z,6.30
2023-02-13T14:34:57.866Z,6.30
2023-02-13T14:37:37.815Z,6.20
2023-02-13T14:40:43.516Z,6.20
2023-02-13T14:43:29.458Z,6.20
2023-02-13T14:46:05.022Z,6.20
2023-02-13T14:48:41.316Z,6.20
2023-02-13T14:51:18.824Z,6.20
2023-02-13T14:53:53.669Z,6.20
2023-02-13T14:56:23.809Z,6.10
2023-02-13T14:58:54.545Z,6.10
2023-02-13T15:01:31.418Z,6.10
2023-02-13T15:04:05.667Z,6.10
2023-02-13T15:06:40.632Z,6.10
2023-02-13T15:09:25.255Z,6.10
2023-02-13T15:11:53.872Z,6.10
2023-02-13T15:14:27.881Z,6.20
2023-02-13T15:17:00.796Z,6.20
2023-02-13T15:19:33.532Z,6.10
2023-02-13T15:22:18.076Z,6.10
2023-02-13T15:24:51.713Z,6.20
2023-02-13T15:27:26.467Z,6.20
2023-02-13T15:29:58.357Z,6.10
2023-02-13T15:32:33.705Z,6.10
2023-02-13T15:35:02.398Z,6.10
2023-02-13T15:40:33.404Z,6.10
2023-02-13T15:43:02.593Z,6.10
2023-02-13T15:45:31.913Z,6.10
2023-02-13T15:48:00.542Z,6.10
2023-02-13T15:50:32.214Z,6.10
2023-02-13T15:53:03.989Z,6.10
2023-02-13T15:55:36.683Z,6.00
2023-02-13T15:58:09.252Z,6.00
2023-02-13T16:00:40.753Z,6.00
2023-02-13T16:03:16.213Z,6.00
2023-02-13T16:05:49.809Z,6.00
2023-02-13T16:08:35.436Z,6.00
2023-02-13T16:11:28.772Z,6.00
2023-02-13T16:14:17.656Z,5.90
2023-02-13T16:16:52.614Z,6.00
2023-02-13T16:19:33.967Z,5.90
2023-02-13T16:22:08.005Z,5.90
2023-02-13T16:24:41.053Z,5.90
2023-02-13T16:27:17.830Z,5.90
2023-02-13T16:29:55.686Z,5.90
2023-02-13T16:32:29.726Z,5.90
2023-02-13T16:35:18.460Z,5.90
2023-02-13T16:37:54.179Z,5.80
2023-02-13T16:40:44.022Z,5.80
2023-02-13T16:43:46.263Z,5.80
2023-02-13T16:46:26.000Z,5.80
2023-02-13T16:49:21.183Z,5.80
2023-02-13T16:58:06.476Z,5.70
2023-02-13T17:00:36.675Z,5.70
2023-02-13T17:03:10.663Z,5.80
2023-02-13T17:05:39.355Z,5.80
2023-02-13T17:08:16.486Z,5.80
2023-02-13T17:11:03.667Z,5.80
2023-02-13T17:13:32.529Z,5.80
2023-02-13T17:16:02.593Z,5.80
2023-02-13T17:18:31.216Z,5.80
2023-02-13T17:21:00.089Z,5.70
2023-02-13T17:23:29.029Z,5.70
2023-02-13T17:25:57.585Z,5.80
2023-02-13T17:28:29.295Z,5.80
2023-02-13T17:30:59.867Z,5.80
2023-02-13T17:33:31.642Z,5.80
2023-02-13T17:36:00.263Z,5.80
2023-02-13T17:38:28.905Z,5.80
2023-02-13T17:40:57.843Z,5.80
2023-02-13T17:43:28.069Z,5.80
2023-02-13T17:45:56.932Z,5.80
2023-02-13T17:48:26.200Z,5.70
2023-02-13T17:50:56.776Z,5.70
2023-02-13T17:53:27.256Z,5.70
2023-02-13T17:55:55.932Z,5.70
2023-02-13T17:58:24.485Z,5.70
2023-02-13T18:00:53.238Z,5.70
2023-02-13T18:03:22.449Z,5.70
2023-02-13T18:05:51.581Z,5.70
2023-02-13T18:08:26.159Z,5.70
2023-02-13T18:10:54.784Z,5.60
2023-02-13T18:13:25.531Z,5.70
2023-02-13T18:15:56.389Z,5.70
2023-02-13T18:18:25.003Z,5.70
2023-02-13T18:20:57.618Z,5.70
2023-02-13T18:23:27.840Z,5.70
2023-02-13T18:26:11.073Z,5.70
2023-02-13T18:28:39.729Z,5.70
2023-02-13T18:31:11.211Z,5.70
2023-02-13T18:33:39.914Z,5.70
2023-02-13T18:36:08.650Z,5.70
2023-02-13T18:38:38.684Z,5.70
2023-02-13T18:41:07.278Z,5.70
2023-02-13T18:43:35.996Z,5.70
2023-02-13T18:46:04.966Z,5.70
2023-02-13T18:48:33.711Z,5.70
2023-02-13T18:51:02.621Z,5.70
2023-02-13T18:53:31.790Z,5.70
2023-02-13T18:56:07.036Z,5.70
2023-02-13T18:58:35.793Z,5.70
2023-02-13T19:01:08.547Z,5.70
2023-02-13T19:03:40.637Z,5.60
2023-02-13T19:06:11.785Z,5.60
2023-02-13T19:08:41.096Z,5.60
2023-02-13T19:11:14.360Z,5.60
2023-02-13T19:13:43.549Z,5.60
2023-02-13T19:16:15.610Z,5.60
2023-02-13T19:18:46.458Z,5.60
2023-02-13T19:21:16.190Z,5.60
2023-02-13T19:23:46.212Z,5.50
2023-02-13T19:26:19.129Z,5.50
2023-02-13T19:28:48.205Z,5.60
2023-02-13T19:31:18.797Z,5.50
2023-02-13T19:33:47.683Z,5.50
2023-02-13T19:36:19.659Z,5.50
2023-02-13T19:38:49.227Z,5.50
2023-02-13T19:41:19.553Z,5.50
2023-02-13T19:43:51.027Z,5.50
2023-02-13T19:46:24.175Z,5.50
2023-02-13T19:48:53.656Z,5.50
2023-02-13T19:51:25.423Z,5.50
2023-02-13T19:53:57.752Z,5.50
2023-02-13T19:56:28.792Z,5.50
2023-02-13T19:58:59.921Z,5.50
2023-02-13T20:01:30.503Z,5.50
2023-02-13T20:03:59.076Z,5.50
2023-02-13T20:06:31.249Z,5.50
2023-02-13T20:09:01.794Z,5.50
2023-02-13T20:11:31.914Z,5.50
2023-02-13T20:14:01.843Z,5.50
2023-02-13T20:16:33.248Z,5.60
2023-02-13T20:19:03.735Z,5.50
2023-02-13T20:21:34.234Z,5.50
2023-02-13T20:24:04.470Z,5.50
2023-02-13T20:26:34.556Z,5.60
2023-02-13T20:29:03.901Z,5.50
2023-02-13T20:31:33.692Z,5.50
2023-02-13T20:34:06.861Z,5.50
2023-02-13T20:36:37.401Z,5.50
2023-02-13T20:39:07.933Z,5.50
2023-02-13T20:41:39.533Z,5.50
2023-02-13T20:44:09.729Z,5.50
2023-02-13T20:46:41.252Z,5.50
2023-02-13T20:49:11.178Z,5.50
2023-02-13T20:51:40.124Z,5.50
2023-02-13T20:54:12.277Z,5.50
2023-02-13T20:56:42.233Z,5.50
2023-02-13T20:59:10.801Z,5.50
2023-02-13T21:01:41.587Z,5.50
2023-02-13T21:04:13.735Z,5.50
2023-02-13T21:06:43.088Z,5.50
2023-02-13T21:09:12.394Z,5.50
2023-02-13T21:11:44.585Z,5.50
2023-02-13T22:28:14.241Z,5.40
2023-02-13T22:30:43.664Z,5.40
2023-02-13T22:33:12.268Z,5.40
2023-02-13T22:35:40.927Z,5.40
2023-02-13T22:38:10.165Z,5.40
2023-02-13T22:40:38.814Z,5.40
2023-02-13T22:43:07.865Z,5.40
2023-02-13T22:45:40.118Z,5.40
2023-02-13T22:48:09.008Z,5.40
2023-02-13T22:50:37.562Z,5.40
2023-02-13T22:53:06.171Z,5.30
2023-02-13T22:55:34.820Z,5.30
2023-02-13T22:58:03.345Z,5.30
2023-02-13T23:00:31.859Z,5.30
2023-02-13T23:03:01.787Z,5.30
2023-02-13T23:05:30.324Z,5.30
2023-02-13T23:07:58.897Z,5.30
2023-02-13T23:10:27.456Z,5.30
2023-02-13T23:12:55.015Z,5.20
2023-02-13T23:15:23.542Z,5.20
2023-02-13T23:18:09.681Z,5.20
2023-02-13T23:20:40.115Z,5.20
2023-02-13T23:23:08.964Z,5.20
2023-02-13T23:25:38.140Z,5.20
2023-02-13T23:28:07.563Z,5.20
2023-02-13T23:30:36.073Z,5.20
2023-02-13T23:33:04.619Z,5.20
2023-02-13T23:35:33.126Z,5.30
2023-02-13T23:38:03.134Z,5.20
2023-02-13T23:40:31.769Z,5.20
2023-02-13T23:43:00.271Z,5.20
2023-02-13T23:45:29.054Z,5.20
2023-02-13T23:47:57.675Z,5.20
2023-02-13T23:50:26.286Z,5.20
2023-02-13T23:52:54.849Z,5.20
2023-02-13T23:55:24.877Z,5.10
2023-02-13T23:57:53.549Z,5.10
